Time;durP1;ratioP1;P1;durP2;ratioP2;P2;SDS_P1;SDS_P2;PMS_P1;PMS_P2;Temp;Humidity;BMP_temperature;BMP_pressure;BME280_temperature;BME280_humidity;BME280_pressure;Samples;Min_cycle;Max_cycle;Signal;HPM_P1;HPM_P2
2022/07/16 06:22:03;;;;;;;3.60;1.90;;;18.10;99.90;;;;;;4871885;29;20048;-71
2022/07/16 06:24:29;;;;;;;2.50;1.48;;;18.90;99.90;;;;;;4947497;29;20035;-72
2022/07/16 06:26:54;;;;;;;4.28;1.60;;;19.60;99.90;;;;;;4947514;29;20475;-71
2022/07/16 06:29:20;;;;;;;6.07;1.35;;;20.10;99.90;;;;;;4937168;29;20031;-69
2022/07/16 06:31:45;;;;;;;2.25;1.42;;;20.60;99.40;;;;;;4937149;29;20076;-72
2022/07/16 06:34:11;;;;;;;4.20;1.75;;;21.00;97.80;;;;;;4937306;29;20071;-73
2022/07/16 06:36:37;;;;;;;4.63;1.80;;;21.50;95.20;;;;;;4936060;29;20031;-74
2022/07/16 06:39:03;;;;;;;2.95;1.48;;;21.90;93.80;;;;;;4946087;29;20117;-72
2022/07/16 06:41:30;;;;;;;1.95;1.10;;;22.30;91.40;;;;;;4938852;29;20526;-69
2022/07/16 06:43:55;;;;;;;5.18;1.20;;;22.60;86.20;;;;;;4956344;29;20038;-72
2022/07/16 06:46:21;;;;;;;2.53;0.93;;;22.80;80.90;;;;;;4938907;28;20031;-71
2022/07/16 06:48:46;;;;;;;2.13;1.10;;;23.10;75.40;;;;;;4956127;29;20046;-73
2022/07/16 06:51:13;;;;;;;1.90;1.00;;;23.30;74.80;;;;;;4956285;29;20064;-73
2022/07/16 06:53:38;;;;;;;1.60;1.17;;;23.50;71.70;;;;;;4939912;29;20020;-72
2022/07/16 06:56:06;;;;;;;2.53;1.20;;;23.70;71.70;;;;;;4937004;29;20379;-81
2022/07/16 06:58:33;;;;;;;1.08;1.02;;;23.90;68.20;;;;;;4919862;29;20028;-85
2022/07/16 07:00:59;;;;;;;1.67;1.17;;;24.20;66.00;;;;;;4929635;29;20039;-85
2022/07/16 07:03:24;;;;;;;2.08;0.93;;;24.40;61.20;;;;;;4954527;29;20087;-74
2022/07/16 07:05:50;;;;;;;2.80;1.13;;;24.10;58.60;;;;;;4955931;29;20407;-73
2022/07/16 07:08:16;;;;;;;1.92;1.10;;;24.10;59.60;;;;;;4955788;29;20435;-72
2022/07/16 07:10:41;;;;;;;4.40;1.10;;;24.30;57.60;;;;;;4955895;29;20057;-73
2022/07/16 07:13:07;;;;;;;0.80;0.70;;;24.40;57.70;;;;;;4955964;29;20086;-73
2022/07/16 07:15:33;;;;;;;2.97;1.05;;;24.60;56.70;;;;;;4955986;29;20148;-73
2022/07/16 07:17:59;;;;;;;2.00;1.10;;;24.80;55.20;;;;;;4956050;29;20523;-73
2022/07/16 07:20:24;;;;;;;1.40;1.17;;;24.90;54.50;;;;;;4955960;29;20106;-72
2022/07/16 07:22:50;;;;;;;2.88;1.10;;;25.10;53.30;;;;;;4955981;29;20054;-73
2022/07/16 07:25:16;;;;;;;1.35;0.98;;;25.00;53.40;;;;;;4954422;29;20078;-73
2022/07/16 07:27:42;;;;;;;1.70;1.30;;;25.00;52.60;;;;;;4955709;29;20039;-73
2022/07/16 07:30:08;;;;;;;0.90;0.90;;;24.70;53.60;;;;;;4954123;29;20108;-73
2022/07/16 07:32:34;;;;;;;1.20;1.10;;;24.90;53.70;;;;;;4955638;29;20027;-73
2022/07/16 07:34:59;;;;;;;2.22;1.00;;;25.30;53.40;;;;;;4955776;29;20423;-74
2022/07/16 07:37:25;;;;;;;3.17;1.13;;;25.70;52.00;;;;;;4954673;29;20028;-74
2022/07/16 07:39:51;;;;;;;6.47;1.25;;;26.00;51.80;;;;;;4955423;29;20042;-75
2022/07/16 07:42:16;;;;;;;1.58;1.23;;;26.30;51.30;;;;;;4955526;29;20069;-74
2022/07/16 07:44:42;;;;;;;3.72;1.10;;;26.80;50.60;;;;;;4955567;29;20106;-74
2022/07/16 07:47:08;;;;;;;3.67;1.13;;;27.30;50.40;;;;;;4955508;29;20046;-75
2022/07/16 07:49:33;;;;;;;2.85;1.20;;;27.70;50.00;;;;;;4955765;29;20031;-75
2022/07/16 07:51:59;;;;;;;3.75;1.42;;;27.50;48.20;;;;;;4938218;29;20110;-74
2022/07/16 07:54:25;;;;;;;1.75;1.15;;;27.50;48.60;;;;;;4954202;29;20033;-74
2022/07/16 07:56:50;;;;;;;3.15;1.25;;;27.60;48.40;;;;;;4954258;29;20066;-74
2022/07/16 07:59:16;;;;;;;2.50;1.30;;;27.80;48.30;;;;;;4956882;28;20482;-74
2022/07/16 08:01:42;;;;;;;1.00;0.93;;;27.90;47.60;;;;;;4959335;29;20027;-75
2022/07/16 08:04:09;;;;;;;1.92;1.15;;;28.00;47.80;;;;;;4958633;29;20035;-75
2022/07/16 08:06:35;;;;;;;1.38;1.08;;;28.00;47.60;;;;;;4959046;29;20031;-75
2022/07/16 08:09:00;;;;;;;1.33;1.05;;;27.90;47.70;;;;;;4941880;29;20478;-75
2022/07/16 08:11:26;;;;;;;3.58;1.38;;;27.90;46.80;;;;;;4959254;29;20027;-75
2022/07/16 08:13:52;;;;;;;1.02;0.90;;;28.00;46.90;;;;;;4958025;29;20023;-75
2022/07/16 08:16:18;;;;;;;2.08;1.17;;;28.30;47.40;;;;;;4959106;29;20031;-75
2022/07/16 08:18:44;;;;;;;2.95;1.30;;;28.60;46.70;;;;;;4958922;29;20455;-75
2022/07/16 08:21:09;;;;;;;1.20;1.08;;;28.70;45.80;;;;;;4941506;29;20027;-74
2022/07/16 08:26:19;;;;;;;3.78;1.98;;;28.90;46.80;;;;;;4958618;29;20046;-76
2022/07/16 08:28:45;;;;;;;3.65;1.50;;;29.20;46.10;;;;;;4958894;29;20031;-76
2022/07/16 08:31:11;;;;;;;2.72;1.10;;;29.70;45.50;;;;;;4958982;29;20031;-76
2022/07/16 08:33:36;;;;;;;1.75;1.50;;;29.70;45.50;;;;;;4958698;29;20370;-74
2022/07/16 08:36:02;;;;;;;2.35;1.10;;;30.00;45.00;;;;;;4957314;29;20075;-75
2022/07/16 08:38:28;;;;;;;1.65;1.25;;;29.90;45.10;;;;;;4958475;29;20038;-75
2022/07/16 08:40:55;;;;;;;3.95;1.60;;;29.30;44.00;;;;;;4958858;29;20027;-75
2022/07/16 08:43:22;;;;;;;0.98;0.98;;;29.50;45.60;;;;;;4957248;29;20054;-75
2022/07/16 08:45:49;;;;;;;1.35;1.27;;;29.30;44.30;;;;;;4941062;29;20039;-77
2022/07/16 08:48:16;;;;;;;2.47;1.30;;;29.30;45.50;;;;;;4941172;29;20038;-75
2022/07/16 08:50:42;;;;;;;1.60;1.40;;;29.50;44.90;;;;;;4941158;29;20082;-75
2022/07/16 08:53:08;;;;;;;4.25;1.27;;;29.90;45.00;;;;;;4957003;29;20069;-80
2022/07/16 08:55:38;;;;;;;3.70;1.50;;;30.30;45.70;;;;;;4957016;29;20037;-80
2022/07/16 08:58:06;;;;;;;4.40;1.48;;;30.80;45.20;;;;;;4956956;29;20034;-72
2022/07/16 09:00:33;;;;;;;2.05;1.40;;;30.50;44.30;;;;;;4941231;29;20035;-74
2022/07/16 09:02:59;;;;;;;2.60;1.30;;;29.80;45.40;;;;;;4957909;29;20078;-80
2022/07/16 09:05:26;;;;;;;1.70;1.60;;;29.70;46.40;;;;;;4941133;29;20032;-80
2022/07/16 09:07:53;;;;;;;3.35;1.80;;;30.20;46.70;;;;;;4958532;29;20031;-74
2022/07/16 09:10:19;;;;;;;3.92;1.48;;;30.30;45.70;;;;;;4940209;29;20035;-81
2022/07/16 09:12:49;;;;;;;2.95;1.45;;;30.10;44.80;;;;;;4941381;29;20066;-83
2022/07/16 09:15:34;;;;;;;1.83;1.58;;;29.50;45.60;;;;;;4956652;29;20028;-75
2022/07/16 09:18:13;;;;;;;2.20;1.60;;;29.20;46.00;;;;;;4958346;29;20035;-76
2022/07/16 09:20:54;;;;;;;3.22;1.73;;;29.20;46.60;;;;;;4957723;29;20024;-76
2022/07/16 09:23:26;;;;;;;3.22;1.38;;;29.30;46.50;;;;;;4940784;29;20046;-75
2022/07/16 09:26:05;;;;;;;3.63;1.60;;;29.40;45.50;;;;;;4940613;29;20038;-77
2022/07/16 09:29:00;;;;;;;1.35;1.25;;;29.70;45.80;;;;;;4957577;29;20542;-78
2022/07/16 09:31:39;;;;;;;2.70;1.73;;;29.90;43.50;;;;;;4938370;29;20031;-77
2022/07/16 09:34:11;;;;;;;2.35;1.42;;;30.60;43.60;;;;;;4957678;29;20051;-75
2022/07/16 09:36:38;;;;;;;4.60;2.78;;;31.00;42.40;;;;;;4957515;29;20063;-81
2022/07/16 09:39:06;;;;;;;5.30;2.97;;;30.90;41.80;;;;;;4940309;29;20113;-74
2022/07/16 09:41:43;;;;;;;5.20;2.90;;;30.40;40.80;;;;;;4957481;29;20031;-78
2022/07/16 09:44:14;;;;;;;4.88;2.30;;;30.00;43.70;;;;;;4940135;29;20267;-75
2022/07/16 09:46:39;;;;;;;4.30;2.20;;;29.50;43.30;;;;;;4956069;29;20041;-73
2022/07/16 09:49:05;;;;;;;5.88;2.55;;;29.20;44.30;;;;;;4957526;29;20110;-72
2022/07/16 09:51:37;;;;;;;2.83;2.05;;;29.50;45.30;;;;;;4957290;29;20035;-73
2022/07/16 09:54:03;;;;;;;3.55;2.28;;;29.60;45.90;;;;;;4957576;29;20028;-77
2022/07/16 09:56:28;;;;;;;4.47;1.90;;;29.60;44.00;;;;;;4956895;29;20498;-75
2022/07/16 09:58:58;;;;;;;5.47;2.10;;;29.60;44.50;;;;;;4957598;29;20028;-78
2022/07/16 10:01:24;;;;;;;3.92;1.60;;;29.60;44.00;;;;;;4957171;29;20044;-80
2022/07/16 10:03:51;;;;;;;2.45;1.55;;;29.40;44.10;;;;;;4939801;29;20023;-75
2022/07/16 10:06:18;;;;;;;3.40;1.80;;;29.30;45.00;;;;;;4955730;29;20470;-77
2022/07/16 10:08:44;;;;;;;2.25;1.42;;;28.80;43.60;;;;;;4939807;29;20035;-79
2022/07/16 10:11:11;;;;;;;5.15;1.85;;;28.80;44.90;;;;;;4956892;29;20032;-78
2022/07/16 10:13:41;;;;;;;3.85;1.63;;;29.70;44.50;;;;;;4956743;29;20062;-78
2022/07/16 10:16:07;;;;;;;1.55;1.45;;;30.10;43.80;;;;;;4956720;29;20042;-79
2022/07/16 10:18:37;;;;;;;5.57;1.67;;;30.50;43.00;;;;;;4956820;29;20027;-79
2022/07/16 10:21:32;;;;;;;3.50;1.80;;;30.70;42.40;;;;;;4956461;29;20023;-79
2022/07/16 10:24:05;;;;;;;2.60;1.40;;;30.90;42.70;;;;;;4922562;29;20039;-81
2022/07/16 10:26:32;;;;;;;3.42;1.60;;;30.90;42.30;;;;;;4956569;29;20471;-81
2022/07/16 10:28:59;;;;;;;4.30;1.38;;;31.30;42.90;;;;;;4956580;29;20042;-80
2022/07/16 10:32:27;;;;;;;2.17;1.38;;;31.60;42.80;;;;;;4956574;29;20027;-80
2022/07/16 10:34:33;;;;;;;3.72;1.40;;;31.30;42.70;;;;;;4956176;29;20027;-80
2022/07/16 10:36:59;;;;;;;2.30;1.80;;;31.10;41.80;;;;;;4956512;29;20119;-81
2022/07/16 10:39:26;;;;;;;2.17;1.70;;;30.80;42.70;;;;;;4956114;29;20062;-81
2022/07/16 10:41:56;;;;;;;1.48;1.45;;;30.50;42.80;;;;;;4956269;29;20024;-80
2022/07/16 10:44:48;;;;;;;2.78;1.60;;;30.10;43.40;;;;;;4956354;29;20027;-81
2022/07/16 10:47:15;;;;;;;3.60;1.60;;;29.50;43.80;;;;;;4949911;29;20051;-80
2022/07/16 10:49:42;;;;;;;4.40;1.73;;;29.70;44.30;;;;;;4939469;29;20371;-80
2022/07/16 10:52:10;;;;;;;2.85;1.55;;;29.90;44.00;;;;;;4938969;29;20023;-81
2022/07/16 10:54:37;;;;;;;2.83;1.98;;;29.80;43.70;;;;;;4956205;29;20023;-79
2022/07/16 10:57:07;;;;;;;2.22;1.50;;;29.50;44.20;;;;;;4939158;29;20039;-85
2022/07/16 10:59:36;;;;;;;1.83;1.50;;;29.70;44.00;;;;;;4956720;29;20053;-84
2022/07/16 11:02:06;;;;;;;;;;;30.00;43.80;;;;;;4956714;29;20110;-81
2022/07/16 11:04:34;;;;;;;3.22;1.50;;;30.30;42.70;;;;;;4938713;29;19993;-83
2022/07/16 11:07:02;;;;;;;2.80;1.52;;;30.60;42.80;;;;;;4956146;29;20039;-83
2022/07/16 11:09:31;;;;;;;2.53;1.63;;;30.90;41.30;;;;;;4956198;29;20043;-80
2022/07/16 11:12:14;;;;;;;3.70;1.67;;;30.40;40.00;;;;;;4955897;29;20019;-81
2022/07/16 11:14:41;;;;;;;3.65;1.30;;;30.50;40.60;;;;;;4938784;29;20034;-80
2022/07/16 11:17:07;;;;;;;1.58;1.40;;;30.30;40.30;;;;;;4938789;29;20035;-82
2022/07/16 11:19:44;;;;;;;2.60;1.70;;;30.00;39.70;;;;;;4956156;29;20082;-79
2022/07/16 11:22:11;;;;;;;3.22;1.58;;;29.90;40.40;;;;;;4955718;29;20395;-79
2022/07/16 11:24:45;;;;;;;2.67;1.73;;;30.10;40.80;;;;;;4938755;29;20031;-74
2022/07/16 11:27:10;;;;;;;4.85;1.55;;;30.40;39.90;;;;;;4938542;29;20483;-76
2022/07/16 11:29:36;;;;;;;1.98;1.50;;;30.90;39.30;;;;;;4938691;29;20110;-83
2022/07/16 11:32:02;;;;;;;3.03;1.65;;;30.90;39.20;;;;;;4938489;29;20035;-83
2022/07/16 11:34:33;;;;;;;3.78;1.83;;;31.00;39.60;;;;;;4954410;29;20118;-82
2022/07/16 11:36:59;;;;;;;3.97;1.90;;;30.70;39.50;;;;;;4956054;29;20133;-78
2022/07/16 11:39:27;;;;;;;2.15;1.77;;;30.80;38.70;;;;;;4955816;29;20484;-77
2022/07/16 11:41:58;;;;;;;2.95;1.80;;;30.70;38.60;;;;;;4938460;29;20038;-73
2022/07/16 11:44:29;;;;;;;2.25;2.05;;;30.60;38.80;;;;;;4955466;29;20038;-81
2022/07/16 11:47:17;;;;;;;1.55;1.45;;;30.60;39.30;;;;;;4955645;29;20027;-75
2022/07/16 11:49:44;;;;;;;2.15;1.50;;;31.20;39.90;;;;;;4938417;29;20035;-79
2022/07/16 11:52:14;;;;;;;2.80;1.88;;;31.60;38.00;;;;;;4955061;29;20083;-76
2022/07/16 11:54:41;;;;;;;3.65;1.70;;;31.60;38.30;;;;;;4938302;29;20493;-79
2022/07/16 11:57:09;;;;;;;2.15;1.50;;;31.30;37.40;;;;;;4955680;29;20054;-80
2022/07/16 11:59:40;;;;;;;2.00;1.70;;;31.60;38.60;;;;;;4955491;29;20098;-76
2022/07/16 12:02:10;;;;;;;3.47;1.67;;;31.30;37.60;;;;;;4955690;29;20027;-77
2022/07/16 12:04:44;;;;;;;2.33;1.90;;;30.60;37.90;;;;;;4938224;29;20031;-76
2022/07/16 12:07:34;;;;;;;3.38;1.98;;;30.00;39.20;;;;;;4938693;29;20031;-76
2022/07/16 12:10:05;;;;;;;4.45;1.80;;;30.20;40.40;;;;;;4937670;29;20035;-78
2022/07/16 12:12:36;;;;;;;3.58;1.38;;;30.40;39.50;;;;;;4955267;29;20517;-76
2022/07/16 12:15:12;;;;;;;2.92;1.77;;;30.60;39.00;;;;;;4938542;29;20031;-76
2022/07/16 12:17:45;;;;;;;1.80;1.70;;;30.30;38.60;;;;;;4955478;29;20098;-76
2022/07/16 12:20:22;;;;;;;2.92;1.88;;;30.20;39.00;;;;;;4955031;29;20427;-76
2022/07/16 12:22:58;;;;;;;2.10;1.58;;;31.00;39.10;;;;;;4955892;29;20065;-76
2022/07/16 12:25:37;;;;;;;2.80;1.75;;;30.90;39.00;;;;;;4937650;29;20118;-76
2022/07/16 12:28:20;;;;;;;2.35;1.52;;;30.80;39.00;;;;;;4938091;29;20028;-76
2022/07/16 12:30:49;;;;;;;3.65;1.55;;;31.20;38.90;;;;;;4938030;29;20050;-74
2022/07/16 12:33:15;;;;;;;1.75;1.65;;;31.30;39.00;;;;;;4955260;29;20024;-75
2022/07/16 12:35:48;;;;;;;3.03;1.88;;;31.20;39.10;;;;;;4954815;29;20027;-76
2022/07/16 12:38:51;;;;;;;1.98;1.63;;;30.90;39.60;;;;;;4955128;29;20023;-76
2022/07/16 12:41:19;;;;;;;4.07;1.63;;;30.70;39.50;;;;;;4955308;29;20114;-75
2022/07/16 12:43:53;;;;;;;9.40;1.77;;;31.00;39.50;;;;;;4937751;29;20493;-78
2022/07/16 12:46:21;;;;;;;2.05;1.60;;;31.60;39.20;;;;;;4941017;29;20035;-77
2022/07/16 12:48:50;;;;;;;3.47;2.15;;;31.20;39.00;;;;;;4940967;29;20044;-76
2022/07/16 12:51:19;;;;;;;1.75;1.65;;;31.20;39.50;;;;;;4958333;29;20027;-75
2022/07/16 12:53:46;;;;;;;2.25;1.80;;;31.60;38.70;;;;;;4958267;29;20028;-77
2022/07/16 12:58:57;;;;;;;4.00;1.70;;;31.50;38.70;;;;;;4958444;29;20029;-79
2022/07/16 13:01:24;;;;;;;2.78;1.70;;;31.20;38.90;;;;;;4940954;29;20054;-79
2022/07/16 13:03:51;;;;;;;1.95;1.55;;;31.40;39.70;;;;;;4958135;29;20027;-78
2022/07/16 13:06:17;;;;;;;3.75;1.90;;;31.20;39.20;;;;;;4958089;29;20038;-79
2022/07/16 13:08:44;;;;;;;3.13;2.20;;;30.00;39.60;;;;;;4957818;29;20035;-79
2022/07/16 13:11:11;;;;;;;2.70;1.98;;;29.40;40.70;;;;;;4958049;29;20070;-65
2022/07/16 13:13:38;;;;;;;4.70;1.90;;;29.30;41.50;;;;;;4958169;29;20111;-75
2022/07/16 13:16:05;;;;;;;3.55;2.00;;;28.90;42.40;;;;;;4957964;29;20039;-60
2022/07/16 13:18:31;;;;;;;2.65;1.60;;;28.80;43.40;;;;;;4958036;29;20033;-60
2022/07/16 13:20:57;;;;;;;3.17;1.80;;;29.30;42.50;;;;;;4941197;29;20035;-61
2022/07/16 13:23:23;;;;;;;2.90;1.60;;;29.90;42.30;;;;;;4957845;29;20038;-60
2022/07/16 13:25:50;;;;;;;2.75;1.50;;;30.50;41.40;;;;;;4940425;29;20360;-60
2022/07/16 13:28:17;;;;;;;1.77;1.67;;;30.30;42.80;;;;;;4957804;29;20032;-61
2022/07/16 13:30:43;;;;;;;2.80;1.88;;;30.40;40.70;;;;;;4957705;29;20054;-60
2022/07/16 13:33:09;;;;;;;2.33;1.75;;;30.20;41.40;;;;;;4957337;29;20035;-61
2022/07/16 13:35:37;;;;;;;4.22;1.63;;;29.70;41.00;;;;;;4957673;29;20078;-62
2022/07/16 13:38:02;;;;;;;6.22;1.52;;;29.80;41.30;;;;;;4957275;29;20442;-60
2022/07/16 13:40:28;;;;;;;3.35;1.75;;;30.00;40.50;;;;;;4957491;29;20062;-61
2022/07/16 13:42:54;;;;;;;2.55;1.60;;;30.00;41.10;;;;;;4957201;29;20031;-61
2022/07/16 13:45:20;;;;;;;1.90;1.55;;;29.30;40.30;;;;;;4957434;29;20039;-62
2022/07/16 13:47:45;;;;;;;1.75;1.60;;;29.80;40.40;;;;;;4957915;28;20061;-62
2022/07/16 13:50:11;;;;;;;3.90;1.90;;;29.70;40.60;;;;;;4976653;28;20035;-61
2022/07/16 13:52:37;;;;;;;3.78;1.30;;;29.30;41.10;;;;;;4976493;28;20026;-62
2022/07/16 13:55:03;;;;;;;3.95;1.80;;;29.80;41.00;;;;;;4976500;28;20030;-61
2022/07/16 14:00:13;;;;;;;3.17;1.52;;;31.30;39.40;;;;;;4976169;28;20085;-61
2022/07/16 14:02:39;;;;;;;2.30;1.60;;;31.70;37.70;;;;;;4976257;28;20031;-61
2022/07/16 14:05:05;;;;;;;2.47;1.80;;;32.30;37.50;;;;;;4976555;28;20026;-61
2022/07/16 14:07:31;;;;;;;1.65;1.55;;;32.20;38.30;;;;;;4976313;28;20035;-61
2022/07/16 14:09:57;;;;;;;4.22;1.67;;;32.20;37.40;;;;;;4975914;28;20038;-61
2022/07/16 14:12:22;;;;;;;2.78;1.60;;;32.00;37.70;;;;;;4976474;28;20019;-60
2022/07/16 14:14:48;;;;;;;3.22;1.55;;;31.80;37.00;;;;;;4975915;28;20039;-61
2022/07/16 14:17:14;;;;;;;3.58;1.50;;;31.70;37.50;;;;;;4976099;28;20031;-61
2022/07/16 14:19:40;;;;;;;1.60;1.50;;;31.40;37.30;;;;;;4958621;28;20389;-61
2022/07/16 14:22:06;;;;;;;2.05;1.25;;;31.10;37.90;;;;;;4976084;28;20474;-61
2022/07/16 14:24:32;;;;;;;1.92;1.35;;;31.60;37.80;;;;;;4958532;28;20034;-61
2022/07/16 14:26:58;;;;;;;2.45;1.60;;;32.20;36.80;;;;;;4975656;28;20058;-61
2022/07/16 14:29:24;;;;;;;2.22;1.58;;;32.30;36.30;;;;;;4975951;28;20023;-62
2022/07/16 14:31:49;;;;;;;2.47;1.73;;;32.20;37.00;;;;;;4975866;28;20490;-60
2022/07/16 14:34:15;;;;;;;4.03;1.30;;;32.20;37.80;;;;;;4975990;28;20034;-61
2022/07/16 14:36:40;;;;;;;2.08;1.67;;;32.20;37.40;;;;;;4975800;28;20030;-62
2022/07/16 14:39:06;;;;;;;2.40;1.50;;;31.40;36.30;;;;;;4975781;28;20031;-62
2022/07/16 14:41:32;;;;;;;4.32;2.05;;;31.10;37.40;;;;;;4975421;28;20031;-62
2022/07/16 14:43:57;;;;;;;1.35;1.25;;;30.90;37.60;;;;;;4975371;28;20026;-63
2022/07/16 14:46:23;;;;;;;2.00;1.80;;;30.10;38.50;;;;;;4975843;28;20042;-62
2022/07/16 14:48:48;;;;;;;1.70;1.60;;;29.20;39.10;;;;;;4975377;28;20041;-72
2022/07/16 14:51:14;;;;;;;2.50;1.27;;;28.90;40.40;;;;;;4975308;28;20030;-60
2022/07/16 14:53:40;;;;;;;2.60;1.50;;;29.00;40.60;;;;;;4957885;28;20097;-61
2022/07/16 14:56:06;;;;;;;5.68;1.48;;;29.70;39.20;;;;;;4975356;28;20034;-60
2022/07/16 14:58:32;;;;;;;2.17;1.10;;;30.20;39.30;;;;;;4975455;28;20375;-61
2022/07/16 15:00:58;;;;;;;2.30;1.50;;;30.70;37.80;;;;;;4975102;28;20031;-61
2022/07/16 15:03:24;;;;;;;1.92;1.73;;;29.80;38.80;;;;;;4975228;28;20368;-61
2022/07/16 15:05:50;;;;;;;2.75;1.63;;;29.40;39.50;;;;;;4975299;28;20035;-59
2022/07/16 15:08:15;;;;;;;1.45;1.35;;;29.70;38.70;;;;;;4974408;28;20073;-60
2022/07/16 15:10:42;;;;;;;5.47;1.38;;;29.80;38.30;;;;;;4958323;28;20451;-60
2022/07/16 15:13:08;;;;;;;2.58;1.63;;;29.60;38.90;;;;;;4975622;28;20027;-61
2022/07/16 15:15:34;;;;;;;1.85;1.38;;;29.30;38.40;;;;;;4975307;28;20378;-60
2022/07/16 15:18:00;;;;;;;1.67;1.58;;;29.10;38.90;;;;;;4975717;28;20027;-61
2022/07/16 15:20:26;;;;;;;3.92;1.60;;;28.60;39.90;;;;;;4975858;28;20034;-62
2022/07/16 15:22:51;;;;;;;3.00;1.38;;;28.10;39.90;;;;;;4975665;28;20057;-59
2022/07/16 15:25:17;;;;;;;2.88;2.20;;;27.90;41.10;;;;;;4957652;28;20402;-61
2022/07/16 15:27:43;;;;;;;4.07;1.95;;;27.40;41.30;;;;;;4975024;28;20045;-60
2022/07/16 15:30:12;;;;;;;3.70;1.35;;;27.00;41.70;;;;;;4974998;28;20027;-61
2022/07/16 15:32:39;;;;;;;1.70;1.33;;;26.80;42.50;;;;;;4957564;28;20183;-61
2022/07/16 15:35:06;;;;;;;3.63;1.80;;;26.70;42.70;;;;;;4974668;28;20037;-61
2022/07/16 15:37:32;;;;;;;3.65;1.60;;;26.60;42.80;;;;;;4957722;28;20039;-60
2022/07/16 15:39:58;;;;;;;3.15;1.67;;;26.50;42.70;;;;;;4957650;28;20030;-60
2022/07/16 15:42:24;;;;;;;3.90;1.80;;;26.30;43.10;;;;;;4957183;28;20034;-61
2022/07/16 15:44:50;;;;;;;2.95;1.52;;;26.30;44.00;;;;;;4974892;28;20061;-61
2022/07/16 15:47:16;;;;;;;4.85;1.52;;;26.20;44.00;;;;;;4975001;28;20039;-60
2022/07/16 15:49:41;;;;;;;4.13;2.58;;;26.00;43.80;;;;;;4974516;28;20031;-61
2022/07/16 15:52:07;;;;;;;2.35;1.58;;;26.00;44.60;;;;;;4975182;28;20066;-60
2022/07/16 15:54:34;;;;;;;3.13;1.70;;;25.90;44.40;;;;;;4975137;28;20463;-62
2022/07/16 15:57:00;;;;;;;3.92;1.60;;;25.80;44.80;;;;;;4957341;28;20031;-60
2022/07/16 15:59:27;;;;;;;2.25;1.30;;;25.80;45.10;;;;;;4974716;28;20031;-61
2022/07/16 16:01:52;;;;;;;2.47;1.80;;;25.80;45.20;;;;;;4974302;28;20411;-60
2022/07/16 16:04:18;;;;;;;2.88;1.40;;;25.70;45.70;;;;;;4974388;28;20062;-60
2022/07/16 16:06:44;;;;;;;4.40;1.67;;;25.70;46.10;;;;;;4974735;28;20027;-60
2022/07/16 16:09:10;;;;;;;3.17;1.45;;;25.70;46.40;;;;;;4974826;28;20177;-60
2022/07/16 16:11:37;;;;;;;2.38;1.63;;;25.80;46.40;;;;;;4974624;28;20093;-60
2022/07/16 16:14:05;;;;;;;5.13;1.80;;;25.80;46.60;;;;;;4974568;28;20030;-61
2022/07/16 16:16:30;;;;;;;4.00;1.63;;;25.70;47.00;;;;;;4974602;28;20034;-60
2022/07/16 16:18:56;;;;;;;2.80;1.20;;;25.70;47.20;;;;;;4974735;28;20487;-60
2022/07/16 16:21:22;;;;;;;4.15;1.70;;;25.60;46.80;;;;;;4959868;28;20050;-60
2022/07/16 16:23:47;;;;;;;2.78;1.60;;;25.50;47.60;;;;;;4954877;29;20615;-60
2022/07/16 16:26:14;;;;;;;2.42;1.40;;;25.50;48.00;;;;;;4958519;29;20035;-60
2022/07/16 16:28:40;;;;;;;2.15;1.10;;;25.40;48.30;;;;;;4958825;29;20039;-60
2022/07/16 16:31:06;;;;;;;1.15;1.10;;;25.40;48.70;;;;;;4958634;29;20030;-60
2022/07/16 16:33:32;;;;;;;1.95;1.10;;;25.40;49.00;;;;;;4958542;29;20023;-74
2022/07/16 16:35:58;;;;;;;4.13;1.50;;;25.40;49.20;;;;;;4958989;29;20372;-58
2022/07/16 16:38:24;;;;;;;2.15;1.20;;;25.30;49.40;;;;;;4958743;29;20028;-59
2022/07/16 16:40:50;;;;;;;3.28;1.20;;;25.20;49.70;;;;;;4958636;29;20027;-58
2022/07/16 16:43:16;;;;;;;1.90;1.23;;;25.10;49.80;;;;;;4958306;29;20034;-59
2022/07/16 16:45:42;;;;;;;4.22;1.70;;;25.00;49.00;;;;;;4958488;29;20035;-59
2022/07/16 16:48:08;;;;;;;1.73;1.13;;;24.90;49.10;;;;;;4958481;29;20065;-59
2022/07/16 16:50:35;;;;;;;6.22;1.42;;;24.90;49.30;;;;;;4958647;29;20027;-67
2022/07/16 16:53:02;;;;;;;1.52;1.10;;;24.80;49.90;;;;;;4958382;29;20023;-59
2022/07/16 16:55:27;;;;;;;1.73;1.15;;;24.80;49.70;;;;;;4941139;29;20357;-59
2022/07/16 16:57:55;;;;;;;1.15;1.10;;;24.80;50.40;;;;;;4958464;29;20034;-59
2022/07/16 17:00:20;;;;;;;1.55;1.13;;;24.90;49.30;;;;;;4958133;29;20537;-58
2022/07/16 17:02:47;;;;;;;4.80;1.30;;;24.90;49.30;;;;;;4958149;29;20075;-58
2022/07/16 17:05:13;;;;;;;1.33;1.10;;;24.90;48.40;;;;;;4958154;29;20031;-59
2022/07/16 17:07:39;;;;;;;1.17;0.80;;;24.90;48.00;;;;;;4958053;29;20035;-59
2022/07/16 17:10:07;;;;;;;1.42;1.00;;;24.90;48.30;;;;;;4957815;29;20538;-59
2022/07/16 17:12:33;;;;;;;1.20;0.95;;;24.80;48.70;;;;;;4958083;29;20031;-59
2022/07/16 17:14:59;;;;;;;5.20;1.13;;;24.80;48.10;;;;;;4958001;29;20110;-60
2022/07/16 17:17:24;;;;;;;4.70;1.02;;;24.70;48.20;;;;;;4957916;29;20106;-59
2022/07/16 17:19:50;;;;;;;1.38;0.90;;;24.60;48.20;;;;;;4957969;29;20031;-59
2022/07/16 17:22:16;;;;;;;5.30;1.63;;;24.60;48.80;;;;;;4957631;29;20082;-59
2022/07/16 17:24:42;;;;;;;2.10;1.25;;;24.50;49.00;;;;;;4957913;29;20089;-62
2022/07/16 17:27:07;;;;;;;2.75;1.02;;;24.50;49.50;;;;;;4957451;29;20482;-59
2022/07/16 17:29:33;;;;;;;0.95;0.50;;;24.50;48.80;;;;;;4957785;29;20066;-59
2022/07/16 17:31:59;;;;;;;1.08;0.93;;;24.40;48.60;;;;;;4956591;28;20031;-59
2022/07/16 17:34:24;;;;;;;1.60;1.02;;;24.40;48.60;;;;;;4957695;29;20027;-59
2022/07/16 17:36:50;;;;;;;2.08;0.93;;;24.30;48.40;;;;;;4956411;29;20027;-59
2022/07/16 17:39:16;;;;;;;1.45;0.70;;;24.20;48.20;;;;;;4957155;29;20057;-64
2022/07/16 17:41:41;;;;;;;2.45;0.85;;;24.20;49.30;;;;;;4957229;29;20038;-57
2022/07/16 17:44:07;;;;;;;4.20;0.70;;;24.20;49.00;;;;;;4957133;29;20027;-56
2022/07/16 17:46:33;;;;;;;2.70;0.68;;;24.20;47.90;;;;;;4956026;29;20372;-56
2022/07/16 17:51:43;;;;;;;1.30;0.75;;;24.20;49.00;;;;;;4957221;29;20050;-56
2022/07/16 17:54:09;;;;;;;1.88;0.85;;;24.20;48.80;;;;;;4957121;29;20471;-56
2022/07/16 17:56:35;;;;;;;3.53;0.73;;;24.10;48.70;;;;;;4957274;29;20035;-56
2022/07/16 17:59:00;;;;;;;0.95;0.75;;;24.00;48.30;;;;;;4956941;29;20058;-56
2022/07/16 18:01:26;;;;;;;2.17;0.70;;;24.00;50.10;;;;;;4956819;29;20145;-56
2022/07/16 18:03:51;;;;;;;2.92;0.90;;;23.90;50.20;;;;;;4957146;29;20023;-56
2022/07/16 18:06:17;;;;;;;2.03;0.90;;;23.80;49.90;;;;;;4971759;28;20031;-57
2022/07/16 18:08:43;;;;;;;2.85;0.95;;;23.70;50.40;;;;;;4956881;29;20042;-57
2022/07/16 18:11:09;;;;;;;2.95;0.80;;;23.70;50.30;;;;;;4956953;29;20086;-56
2022/07/16 18:13:35;;;;;;;2.88;0.90;;;23.60;50.50;;;;;;4957172;29;20491;-56
2022/07/16 18:16:01;;;;;;;3.25;0.70;;;23.50;51.00;;;;;;4957086;29;20035;-57
2022/07/16 18:18:27;;;;;;;0.60;0.57;;;23.40;51.40;;;;;;4956580;29;20090;-56
2022/07/16 18:20:52;;;;;;;1.95;0.57;;;23.30;49.90;;;;;;4956721;29;20034;-57
2022/07/16 18:23:18;;;;;;;3.13;0.60;;;23.20;51.70;;;;;;4956312;29;20149;-56
2022/07/16 18:25:44;;;;;;;1.55;0.63;;;23.10;52.30;;;;;;4956519;29;20043;-56
2022/07/16 18:28:10;;;;;;;1.00;0.40;;;23.00;52.70;;;;;;4956233;29;20368;-57
2022/07/16 18:30:35;;;;;;;1.60;0.60;;;22.90;51.70;;;;;;4956279;29;20031;-66
2022/07/16 18:33:01;;;;;;;3.92;1.13;;;22.90;52.50;;;;;;4956502;29;20031;-64
2022/07/16 18:35:27;;;;;;;2.10;0.80;;;22.80;52.80;;;;;;4957261;29;20447;-64
2022/07/16 18:37:53;;;;;;;2.15;0.50;;;22.60;54.40;;;;;;4956379;29;20378;-64
2022/07/16 18:40:18;;;;;;;2.05;0.50;;;22.50;55.50;;;;;;4956455;29;20114;-64
2022/07/16 18:42:44;;;;;;;1.65;0.68;;;22.40;55.80;;;;;;4956208;28;20030;-64
2022/07/16 18:45:10;;;;;;;2.50;0.65;;;22.30;55.50;;;;;;4956346;29;20027;-65
2022/07/16 18:47:36;;;;;;;1.35;0.70;;;22.20;55.20;;;;;;4956295;29;20035;-64
2022/07/16 18:50:04;;;;;;;2.13;0.43;;;22.10;55.40;;;;;;4954913;29;20034;-65
2022/07/16 18:52:30;;;;;;;4.05;0.63;;;22.00;57.80;;;;;;4954762;29;20054;-65
2022/07/16 18:54:55;;;;;;;0.82;0.40;;;22.00;57.40;;;;;;4923187;29;20031;-63
2022/07/16 18:57:21;;;;;;;3.47;0.77;;;21.90;57.40;;;;;;4955082;29;20031;-65
2022/07/16 18:59:46;;;;;;;1.33;0.70;;;21.80;56.90;;;;;;4956146;29;20027;-64
2022/07/16 19:02:12;;;;;;;0.88;0.60;;;21.70;57.80;;;;;;4956342;29;20424;-65
2022/07/16 19:04:38;;;;;;;2.72;0.60;;;21.50;58.80;;;;;;4954771;29;20059;-65
2022/07/16 19:07:04;;;;;;;3.00;0.70;;;21.40;58.70;;;;;;4954291;29;20032;-65
2022/07/16 19:09:30;;;;;;;2.15;0.60;;;21.30;59.70;;;;;;4956105;29;20498;-65
2022/07/16 19:11:57;;;;;;;0.90;0.43;;;21.20;59.70;;;;;;4955902;29;20105;-64
2022/07/16 19:14:23;;;;;;;2.13;0.52;;;21.20;60.40;;;;;;4954733;29;20038;-63
2022/07/16 19:16:49;;;;;;;0.95;0.43;;;21.20;61.20;;;;;;4954840;29;20387;-65
2022/07/16 19:19:15;;;;;;;1.05;0.50;;;21.10;61.70;;;;;;4955846;29;20031;-59
2022/07/16 19:21:41;;;;;;;1.70;0.77;;;21.00;61.80;;;;;;4955754;29;20047;-59